createdAt,value
2023-11-01T00:01:41.155Z,1.60
2023-11-01T00:04:13.124Z,1.40
2023-11-01T00:06:48.798Z,1.40
2023-11-01T00:09:22.013Z,1.20
2023-11-01T00:11:53.021Z,1.40
2023-11-01T00:14:22.019Z,1.40
2023-11-01T00:16:55.343Z,1.40
2023-11-01T00:19:24.935Z,1.20
2023-11-01T00:22:01.849Z,1.30
2023-11-01T00:24:36.316Z,1.50
2023-11-01T00:27:10.097Z,1.30
2023-11-01T00:29:44.088Z,1.30
2023-11-01T00:32:17.977Z,1.30
2023-11-01T00:34:46.604Z,1.20
2023-11-01T00:37:44.968Z,1.20
2023-11-01T00:40:16.843Z,1.20
2023-11-01T00:42:47.181Z,1.00
2023-11-01T00:45:21.586Z,1.00
2023-11-01T00:47:52.623Z,1.10
2023-11-01T00:50:23.805Z,0.80
2023-11-01T00:52:54.707Z,0.90
2023-11-01T00:55:31.165Z,0.70
2023-11-01T00:58:00.122Z,0.80
2023-11-01T01:00:33.462Z,0.80
2023-11-01T01:03:03.687Z,0.70
2023-11-01T01:05:32.874Z,0.80
2023-11-01T01:08:04.557Z,0.80
2023-11-01T01:10:33.169Z,0.90
2023-11-01T01:13:04.667Z,0.70
2023-11-01T01:15:33.204Z,0.90
2023-11-01T01:18:09.175Z,0.80
2023-11-01T01:20:44.101Z,0.70
2023-11-01T01:23:14.238Z,0.50
2023-11-01T01:25:42.817Z,0.50
2023-11-01T01:28:33.651Z,0.60
2023-11-01T01:31:02.641Z,0.70
2023-11-01T01:33:31.315Z,0.60
2023-11-01T01:36:00.819Z,0.60
2023-11-01T01:38:29.637Z,0.50
2023-11-01T01:41:00.475Z,0.50
2023-11-01T01:43:29.383Z,0.50
2023-11-01T01:46:09.869Z,0.50
2023-11-01T01:48:45.866Z,0.50
2023-11-01T01:51:15.431Z,0.40
2023-11-01T01:53:48.472Z,0.40
2023-11-01T01:56:21.119Z,0.50
2023-11-01T01:58:52.434Z,0.40
2023-11-01T02:01:35.515Z,0.50
2023-11-01T02:04:19.304Z,0.50
2023-11-01T02:06:50.215Z,0.30
2023-11-01T02:09:24.951Z,0.40
2023-11-01T02:11:53.765Z,0.90
2023-11-01T02:14:25.680Z,0.40
2023-11-01T02:16:57.409Z,0.50
2023-11-01T02:19:40.873Z,0.50
2023-11-01T02:22:14.792Z,1.10
2023-11-01T02:24:55.317Z,0.50
2023-11-01T02:27:30.071Z,0.80
2023-11-01T02:30:37.027Z,0.40
2023-11-01T02:33:14.391Z,0.40
2023-11-01T02:35:43.321Z,0.30
2023-11-01T02:38:12.815Z,0.40
2023-11-01T02:40:41.416Z,0.40
2023-11-01T02:43:15.373Z,0.80
2023-11-01T02:45:47.121Z,0.60
2023-11-01T02:48:28.890Z,0.50
2023-11-01T02:51:24.529Z,0.40
2023-11-01T02:53:58.885Z,0.50
2023-11-01T02:56:27.840Z,0.40
2023-11-01T02:59:09.699Z,0.50
2023-11-01T03:02:09.307Z,0.50
2023-11-01T03:04:38.500Z,0.50
2023-11-01T03:07:09.681Z,0.60
2023-11-01T03:09:40.759Z,0.40
2023-11-01T03:12:11.897Z,0.60
2023-11-01T03:14:46.031Z,0.60
2023-11-01T03:17:17.233Z,0.50
2023-11-01T03:19:53.692Z,0.70
2023-11-01T03:22:30.435Z,0.50
2023-11-01T03:25:03.972Z,0.40
2023-11-01T03:27:35.297Z,0.40
2023-11-01T03:30:30.631Z,0.50
2023-11-01T03:33:13.086Z,0.50
2023-11-01T03:35:49.644Z,0.40
2023-11-01T03:38:18.538Z,0.50
2023-11-01T03:40:50.315Z,0.50
2023-11-01T03:43:27.601Z,0.70
2023-11-01T03:45:58.555Z,0.70
2023-11-01T03:48:30.431Z,0.60
2023-11-01T03:51:12.871Z,0.50
2023-11-01T03:53:43.969Z,0.50
2023-11-01T03:56:15.342Z,0.50
2023-11-01T03:58:44.264Z,0.60
2023-11-01T04:01:18.808Z,0.60
2023-11-01T04:03:49.701Z,0.50
2023-11-01T04:06:24.653Z,0.50
2023-11-01T04:08:58.833Z,0.60
2023-11-01T04:11:30.205Z,0.50
2023-11-01T04:14:14.227Z,0.60
2023-11-01T04:16:48.324Z,0.80
2023-11-01T04:19:18.630Z,0.50
2023-11-01T04:21:54.368Z,1.00
2023-11-01T04:24:29.911Z,0.50
2023-11-01T04:27:14.918Z,0.70
2023-11-01T04:29:45.993Z,0.60
2023-11-01T04:32:20.037Z,0.40
2023-11-01T04:34:55.906Z,0.40
2023-11-01T04:37:25.313Z,0.40
2023-11-01T04:39:54.005Z,0.60
2023-11-01T04:42:22.643Z,0.50
2023-11-01T04:44:51.159Z,0.80
2023-11-01T04:47:22.234Z,0.60
2023-11-01T04:49:56.518Z,0.70
2023-11-01T04:52:28.526Z,0.50
2023-11-01T04:55:02.013Z,0.50
2023-11-01T04:57:33.819Z,0.80
2023-11-01T05:00:09.990Z,0.70
2023-11-01T05:02:41.196Z,0.50
2023-11-01T05:05:12.656Z,0.70
2023-11-01T05:07:44.110Z,0.60
2023-11-01T05:10:17.925Z,0.70
2023-11-01T05:12:51.452Z,0.60
2023-11-01T05:15:20.059Z,0.80
2023-11-01T05:17:52.575Z,0.70
2023-11-01T05:20:23.594Z,0.80
2023-11-01T05:22:52.845Z,1.20
2023-11-01T05:25:21.593Z,0.90
2023-11-01T05:28:02.404Z,0.80
2023-11-01T05:30:37.426Z,1.00
2023-11-01T05:33:30.117Z,0.70
2023-11-01T05:36:18.845Z,0.60
2023-11-01T05:39:12.478Z,0.70
2023-11-01T05:42:13.529Z,0.50
2023-11-01T05:45:24.243Z,0.50
2023-11-01T05:48:21.016Z,0.50
2023-11-01T05:51:27.932Z,0.50
2023-11-01T05:54:24.810Z,1.30
2023-11-01T05:57:29.239Z,1.70
2023-11-01T06:00:30.236Z,2.20
2023-11-01T06:03:57.397Z,1.90
2023-11-01T06:07:11.641Z,2.10
2023-11-01T06:10:04.126Z,1.50
2023-11-01T06:13:02.861Z,1.60
2023-11-01T06:15:59.422Z,1.40
2023-11-01T06:19:06.937Z,1.30
2023-11-01T06:22:20.650Z,0.80
2023-11-01T06:25:23.303Z,0.70
2023-11-01T06:28:21.360Z,0.70
2023-11-01T06:31:21.756Z,0.90
2023-11-01T06:34:39.006Z,0.90
2023-11-01T06:37:35.008Z,0.70
2023-11-01T06:40:20.169Z,0.90
2023-11-01T06:43:22.474Z,0.70
2023-11-01T06:46:49.936Z,0.80
2023-11-01T06:49:39.391Z,0.80
2023-11-01T06:52:35.436Z,1.00
2023-11-01T06:55:42.076Z,1.20
2023-11-01T06:58:31.376Z,1.10
2023-11-01T07:01:20.422Z,0.80
2023-11-01T07:04:15.640Z,0.90
2023-11-01T07:07:23.532Z,1.10
2023-11-01T07:10:20.043Z,1.10
2023-11-01T07:13:04.620Z,1.30
2023-11-01T07:16:17.231Z,1.10
2023-11-01T07:19:07.660Z,0.90
2023-11-01T07:22:01.019Z,0.90
2023-11-01T07:24:58.503Z,0.80
2023-11-01T07:27:52.341Z,0.80
2023-11-01T07:30:48.131Z,0.90
2023-11-01T07:35:57.890Z,0.60
2023-11-01T07:38:54.937Z,0.60
2023-11-01T07:41:28.908Z,0.70
2023-11-01T07:44:57.026Z,0.80
2023-11-01T07:48:21.093Z,0.60
2023-11-01T07:51:39.864Z,0.60
2023-11-01T07:54:40.229Z,0.70
2023-11-01T07:57:48.513Z,0.60
2023-11-01T08:01:07.004Z,0.50
2023-11-01T08:04:11.495Z,0.90
2023-11-01T08:07:21.680Z,1.10
2023-11-01T08:10:21.295Z,1.20
2023-11-01T08:13:19.866Z,1.00
2023-11-01T08:16:32.066Z,1.00
2023-11-01T08:19:40.574Z,0.90
2023-11-01T08:22:47.200Z,1.00
2023-11-01T08:25:56.493Z,0.90
2023-11-01T08:29:16.345Z,1.10
2023-11-01T08:32:29.588Z,1.10
2023-11-01T08:36:10.536Z,19.50
2023-11-01T08:39:19.099Z,2.60
2023-11-01T08:42:30.213Z,1.10
2023-11-01T08:45:55.840Z,5.60
2023-11-01T08:48:45.980Z,1.40
2023-11-01T08:51:43.985Z,1.60
2023-11-01T08:54:47.337Z,1.80
2023-11-01T08:58:13.457Z,2.00
2023-11-01T09:01:36.809Z,2.00
2023-11-01T09:04:36.961Z,3.50
2023-11-01T09:07:49.464Z,3.60
2023-11-01T09:11:00.984Z,2.60
2023-11-01T09:14:01.449Z,3.00
2023-11-01T09:16:58.955Z,2.60
2023-11-01T09:20:05.716Z,2.60
2023-11-01T09:23:00.208Z,1.80
2023-11-01T09:26:17.028Z,1.80
2023-11-01T09:30:06.665Z,2.20
2023-11-01T09:33:15.450Z,2.10
2023-11-01T09:36:17.616Z,2.50
2023-11-01T09:39:21.945Z,2.40
2023-11-01T09:42:49.456Z,2.90
2023-11-01T09:45:52.221Z,3.40
2023-11-01T09:48:38.813Z,3.60
2023-11-01T09:51:39.985Z,3.10
2023-11-01T09:54:38.498Z,3.00
2023-11-01T09:57:33.114Z,2.50
2023-11-01T10:01:14.629Z,2.40
2023-11-01T10:04:24.944Z,2.70
2023-11-01T10:07:11.861Z,2.60
2023-11-01T10:10:33.666Z,2.70
2023-11-01T10:13:26.429Z,3.00
2023-11-01T10:16:41.739Z,3.10
2023-11-01T10:19:27.331Z,3.20
2023-11-01T10:22:18.934Z,3.00
2023-11-01T10:25:14.712Z,2.90
2023-11-01T10:27:55.644Z,2.80
2023-11-01T10:30:56.422Z,3.00
2023-11-01T10:34:12.987Z,2.90
2023-11-01T10:37:30.879Z,2.80
2023-11-01T10:40:28.801Z,2.90
2023-11-01T10:43:46.406Z,2.60
2023-11-01T10:46:24.472Z,3.10
2023-11-01T10:49:11.097Z,2.80
2023-11-01T10:52:03.897Z,2.70
2023-11-01T10:55:02.982Z,3.40
2023-11-01T10:57:44.726Z,2.90
2023-11-01T11:00:48.927Z,2.90
2023-11-01T11:04:11.468Z,2.90
2023-11-01T11:07:26.690Z,3.50
2023-11-01T11:10:52.314Z,3.50
2023-11-01T11:14:18.355Z,3.70
2023-11-01T11:17:42.048Z,3.20
2023-11-01T11:20:46.642Z,2.90
2023-11-01T11:23:56.433Z,2.90
2023-11-01T11:27:18.286Z,3.00
2023-11-01T11:29:59.422Z,3.30
2023-11-01T11:32:47.378Z,3.10
2023-11-01T11:35:38.432Z,3.30
2023-11-01T11:39:14.519Z,3.10
2023-11-01T11:42:39.732Z,4.00
2023-11-01T11:45:47.097Z,4.10
2023-11-01T11:48:56.276Z,3.70
2023-11-01T11:52:14.964Z,3.80
2023-11-01T11:55:22.288Z,4.10
2023-11-01T11:57:53.642Z,4.10
2023-11-01T12:00:51.936Z,4.00
2023-11-01T12:03:43.440Z,3.80
2023-11-01T12:06:46.335Z,4.30
2023-11-01T12:09:31.804Z,4.60
2023-11-01T12:12:24.358Z,4.50
2023-11-01T12:15:20.737Z,4.30
2023-11-01T12:18:25.884Z,4.10
2023-11-01T12:21:17.560Z,4.30
2023-11-01T12:24:06.001Z,4.70
2023-11-01T12:27:19.517Z,4.70
2023-11-01T12:30:08.476Z,4.40
2023-11-01T12:32:55.194Z,4.30
2023-11-01T12:36:02.343Z,3.70
2023-11-01T12:38:56.502Z,4.80
2023-11-01T12:41:41.600Z,5.30
2023-11-01T12:45:11.062Z,5.50
2023-11-01T12:48:10.673Z,6.10
2023-11-01T12:50:53.876Z,6.20
2023-11-01T12:53:38.716Z,6.40
2023-11-01T12:56:43.512Z,6.60
2023-11-01T12:59:24.162Z,6.70
2023-11-01T13:02:06.886Z,7.30
2023-11-01T13:04:59.107Z,6.80
2023-11-01T13:07:56.810Z,6.70
2023-11-01T13:11:03.161Z,6.70
2023-11-01T13:13:45.099Z,6.40
2023-11-01T13:17:00.331Z,6.80
2023-11-01T13:19:47.750Z,6.70
2023-11-01T13:22:58.761Z,7.20
2023-11-01T13:25:58.034Z,6.50
2023-11-01T13:28:52.362Z,6.90
2023-11-01T13:32:02.703Z,6.50
2023-11-01T13:38:04.112Z,6.20
2023-11-01T13:41:05.119Z,7.10
2023-11-01T13:43:41.712Z,7.20
2023-11-01T13:46:43.934Z,7.30
2023-11-01T13:49:45.898Z,6.70
2023-11-01T13:52:43.976Z,7.60
2023-11-01T13:55:34.238Z,6.60
2023-11-01T13:58:24.364Z,7.10
2023-11-01T14:01:16.207Z,7.00
2023-11-01T14:04:04.402Z,6.80
2023-11-01T14:06:56.420Z,6.80
2023-11-01T14:09:59.605Z,6.70
2023-11-01T14:12:58.279Z,6.70
2023-11-01T14:16:05.215Z,7.00
2023-11-01T14:19:14.126Z,7.60
2023-11-01T14:21:57.776Z,7.70
2023-11-01T14:24:38.327Z,8.50
2023-11-01T14:27:23.578Z,7.70
2023-11-01T14:30:24.229Z,8.30
2023-11-01T14:33:01.779Z,8.30
2023-11-01T14:35:54.142Z,7.70
2023-11-01T14:38:54.771Z,7.60
2023-11-01T14:41:36.859Z,11.10
2023-11-01T14:44:21.173Z,11.00
2023-11-01T14:47:31.920Z,11.00
2023-11-01T14:51:08.650Z,11.10
2023-11-01T14:54:17.781Z,10.40
2023-11-01T14:57:05.732Z,15.20
2023-11-01T15:00:20.543Z,18.90
2023-11-01T15:03:10.605Z,22.50
2023-11-01T15:05:58.385Z,21.60
2023-11-01T15:08:54.844Z,21.50
2023-11-01T15:11:57.683Z,26.50
2023-11-01T15:15:10.733Z,31.90
2023-11-01T15:18:04.086Z,21.20
2023-11-01T15:20:47.160Z,20.80
2023-11-01T15:23:37.981Z,20.80
2023-11-01T15:26:34.509Z,20.40
2023-11-01T15:29:12.155Z,21.80
2023-11-01T15:32:10.106Z,22.80
2023-11-01T15:34:57.798Z,22.80
2023-11-01T15:37:44.442Z,25.80
2023-11-01T15:40:57.184Z,29.10
2023-11-01T15:43:30.688Z,31.00
2023-11-01T15:46:11.567Z,31.80
2023-11-01T15:49:05.859Z,30.10
2023-11-01T15:51:48.453Z,30.20
2023-11-01T15:54:44.810Z,30.20
2023-11-01T15:57:27.031Z,34.10
2023-11-01T16:00:15.121Z,38.80
2023-11-01T16:02:55.542Z,38.00
2023-11-01T16:05:51.209Z,41.40
2023-11-01T16:08:30.401Z,41.70
2023-11-01T16:11:07.125Z,46.30
2023-11-01T16:14:05.674Z,47.20
2023-11-01T16:16:48.093Z,44.60
2023-11-01T16:19:30.138Z,45.60
2023-11-01T16:22:19.863Z,40.00
2023-11-01T16:25:05.375Z,34.50
2023-11-01T16:27:52.394Z,33.60
2023-11-01T16:30:37.070Z,30.80
2023-11-01T16:33:09.873Z,29.70
2023-11-01T16:35:43.933Z,31.30
2023-11-01T16:39:07.582Z,32.30
2023-11-01T16:42:17.493Z,42.50
2023-11-01T16:45:05.262Z,34.80
2023-11-01T16:47:43.549Z,32.40
2023-11-01T16:50:12.446Z,35.20
2023-11-01T16:52:49.403Z,34.20
2023-11-01T16:55:28.553Z,35.50
2023-11-01T16:58:17.308Z,37.70
2023-11-01T17:00:54.360Z,38.50
2023-11-01T17:03:47.685Z,41.00
2023-11-01T17:06:44.999Z,41.90
2023-11-01T17:09:26.613Z,42.70
2023-11-01T17:12:11.132Z,46.80
2023-11-01T17:14:51.589Z,50.30
2023-11-01T17:17:37.698Z,51.50
2023-11-01T17:20:20.633Z,49.50
2023-11-01T17:23:09.875Z,47.90
2023-11-01T17:25:58.046Z,48.50
2023-11-01T17:28:38.517Z,49.20
2023-11-01T17:31:40.642Z,45.20
2023-11-01T17:34:41.138Z,48.80
2023-11-01T17:37:46.906Z,49.10
2023-11-01T17:40:39.548Z,47.00
2023-11-01T17:43:51.938Z,46.20
2023-11-01T17:46:34.543Z,43.20
2023-11-01T17:49:17.717Z,44.70
2023-11-01T17:52:15.349Z,46.40
2023-11-01T17:55:10.381Z,45.70
2023-11-01T17:57:54.294Z,45.80
2023-11-01T18:00:33.391Z,45.30
2023-11-01T18:03:58.389Z,43.10
2023-11-01T18:06:47.251Z,45.00
2023-11-01T18:09:23.718Z,43.90
2023-11-01T18:12:00.519Z,42.80
2023-11-01T18:14:55.122Z,42.70
2023-11-01T18:17:45.612Z,41.00
2023-11-01T18:20:40.417Z,40.10
2023-11-01T18:23:24.272Z,41.00
2023-11-01T18:26:42.517Z,41.60
2023-11-01T18:29:30.329Z,41.60
2023-11-01T18:32:05.388Z,42.40
2023-11-01T18:34:58.601Z,43.10
2023-11-01T18:37:48.843Z,49.80
2023-11-01T18:40:36.788Z,54.00
2023-11-01T18:43:19.083Z,49.60
2023-11-01T18:46:15.575Z,53.40
2023-11-01T18:49:07.519Z,50.90
2023-11-01T18:52:09.497Z,50.80
2023-11-01T18:55:19.831Z,49.60
2023-11-01T18:58:10.298Z,48.10
2023-11-01T19:01:20.002Z,51.20
2023-11-01T19:04:26.895Z,48.10
2023-11-01T19:07:34.658Z,48.10
2023-11-01T19:10:42.621Z,46.70
2023-11-01T19:13:17.378Z,43.30
2023-11-01T19:16:18.277Z,42.70
2023-11-01T19:18:56.436Z,42.20
2023-11-01T19:21:43.926Z,44.00
2023-11-01T19:24:21.076Z,42.80
2023-11-01T19:27:23.923Z,42.50
2023-11-01T19:30:14.572Z,42.20
2023-11-01T19:32:57.823Z,44.10
2023-11-01T19:35:39.552Z,42.00
2023-11-01T19:38:59.557Z,39.80
2023-11-01T19:41:39.262Z,48.90
2023-11-01T19:44:14.213Z,41.70
2023-11-01T19:47:26.761Z,41.50
2023-11-01T19:50:14.701Z,37.20
2023-11-01T19:53:01.586Z,38.40
2023-11-01T19:55:36.959Z,45.10
2023-11-01T19:58:22.892Z,55.20
2023-11-01T20:01:02.959Z,42.00
2023-11-01T20:03:42.237Z,34.20
2023-11-01T20:06:21.856Z,36.10
2023-11-01T20:09:11.762Z,34.80
2023-11-01T20:11:45.680Z,32.10
2023-11-01T20:14:34.990Z,35.70
2023-11-01T20:17:21.583Z,33.30
2023-11-01T20:20:07.548Z,32.60
2023-11-01T20:22:55.037Z,37.20
2023-11-01T20:25:33.285Z,38.00
2023-11-01T20:28:34.377Z,40.40
2023-11-01T20:31:41.054Z,35.70
2023-11-01T20:38:06.977Z,28.80
2023-11-01T20:40:54.162Z,36.60
2023-11-01T20:43:51.826Z,34.00
2023-11-01T20:46:55.436Z,33.50
2023-11-01T20:50:03.203Z,33.40
2023-11-01T20:53:26.075Z,35.10
2023-11-01T20:56:35.733Z,37.60
2023-11-01T20:59:34.811Z,36.70
2023-11-01T21:03:00.500Z,35.80
2023-11-01T21:06:10.473Z,34.00
2023-11-01T21:09:51.075Z,34.90
2023-11-01T21:13:34.268Z,34.90
2023-11-01T21:16:30.670Z,34.30
2023-11-01T21:19:29.706Z,33.70
2023-11-01T21:22:12.401Z,33.50
2023-11-01T21:24:47.085Z,33.20
2023-11-01T21:28:09.441Z,34.90
2023-11-01T21:30:52.443Z,35.70
2023-11-01T21:33:53.354Z,35.80
2023-11-01T21:37:00.354Z,36.00
2023-11-01T21:40:43.486Z,35.10
2023-11-01T21:43:54.216Z,36.20
2023-11-01T21:46:57.735Z,38.60
2023-11-01T21:50:18.364Z,34.20
2023-11-01T21:53:11.021Z,33.10
2023-11-01T21:56:10.966Z,33.00
2023-11-01T21:59:21.417Z,34.00
2023-11-01T22:02:37.799Z,33.60
2023-11-01T22:05:59.759Z,28.00
2023-11-01T22:09:42.383Z,29.10
2023-11-01T22:13:17.700Z,26.50
2023-11-01T22:16:37.612Z,24.90
2023-11-01T22:20:06.179Z,21.30
2023-11-01T22:23:37.897Z,28.90
2023-11-01T22:26:33.735Z,23.30
2023-11-01T22:29:29.423Z,22.70
2023-11-01T22:32:38.253Z,27.10
2023-11-01T22:35:46.733Z,23.50
2023-11-01T22:38:49.758Z,24.10
2023-11-01T22:41:52.875Z,20.90
2023-11-01T22:44:30.293Z,22.90
2023-11-01T22:47:06.950Z,23.90
2023-11-01T22:50:14.486Z,23.80
2023-11-01T22:53:26.901Z,23.80
2023-11-01T22:57:10.568Z,23.40
2023-11-01T23:00:25.899Z,25.20
2023-11-01T23:03:45.643Z,30.70
2023-11-01T23:07:16.418Z,23.20
2023-11-01T23:10:04.791Z,27.00
2023-11-01T23:13:31.844Z,26.80
2023-11-01T23:16:39.901Z,31.30
2023-11-01T23:19:43.588Z,37.10
2023-11-01T23:23:00.376Z,29.00
2023-11-01T23:25:56.259Z,39.20
2023-11-01T23:29:02.783Z,31.80
2023-11-01T23:32:03.015Z,33.70
2023-11-01T23:35:12.384Z,31.80
2023-11-01T23:38:06.796Z,41.60
2023-11-01T23:41:11.019Z,29.60
2023-11-01T23:44:02.058Z,23.10
2023-11-01T23:47:06.565Z,24.20
2023-11-01T23:50:20.198Z,23.90
2023-11-01T23:53:06.140Z,24.70
2023-11-01T23:56:20.953Z,21.60
2023-11-01T23:59:25.218Z,20.50
